createdAt,value
2022-10-16T00:03:11.783Z,5.00
2022-10-16T00:08:12.521Z,6.20
2022-10-16T00:13:13.574Z,5.10
2022-10-16T00:18:13.859Z,4.50
2022-10-16T00:23:14.610Z,4.00
2022-10-16T00:28:15.374Z,4.60
2022-10-16T00:33:16.136Z,4.80
2022-10-16T00:38:16.971Z,3.90
2022-10-16T00:43:17.690Z,3.90
2022-10-16T00:48:18.744Z,4.50
2022-10-16T00:53:19.149Z,4.30
2022-10-16T00:58:19.902Z,4.20
2022-10-16T01:03:20.711Z,4.30
2022-10-16T01:08:21.452Z,4.90
2022-10-16T01:13:22.937Z,4.00
2022-10-16T01:18:22.719Z,3.50
2022-10-16T01:23:23.534Z,4.70
2022-10-16T01:28:24.346Z,4.50
2022-10-16T01:33:25.077Z,5.20
2022-10-16T01:38:25.828Z,4.00
2022-10-16T01:43:26.610Z,4.20
2022-10-16T01:48:27.783Z,4.80
2022-10-16T01:53:27.983Z,4.50
2022-10-16T01:58:28.888Z,5.50
2022-10-16T02:03:29.602Z,5.10
2022-10-16T02:08:30.473Z,4.00
2022-10-16T02:13:31.145Z,4.20
2022-10-16T02:18:32.091Z,4.30
2022-10-16T02:23:32.984Z,4.40
2022-10-16T02:28:33.880Z,5.10
2022-10-16T02:33:34.616Z,4.30
2022-10-16T02:38:35.509Z,4.40
2022-10-16T02:43:36.179Z,3.70
2022-10-16T02:48:36.961Z,3.20
2022-10-16T02:53:37.685Z,3.30
2022-10-16T02:58:38.525Z,3.30
2022-10-16T03:03:39.267Z,4.20
2022-10-16T03:08:46.978Z,4.50
2022-10-16T03:13:40.660Z,5.20
2022-10-16T03:18:41.382Z,4.40
2022-10-16T03:23:42.197Z,5.80
2022-10-16T03:28:42.977Z,6.40
2022-10-16T03:33:43.689Z,5.50
2022-10-16T03:38:44.478Z,4.00
2022-10-16T03:43:45.217Z,3.90
2022-10-16T03:48:45.927Z,4.90
2022-10-16T03:53:46.653Z,6.10
2022-10-16T03:58:47.390Z,3.90
2022-10-16T04:03:48.109Z,4.50
2022-10-16T04:08:48.901Z,6.00
2022-10-16T04:13:49.621Z,5.00
2022-10-16T04:18:50.351Z,5.40
2022-10-16T04:23:51.074Z,4.50
2022-10-16T04:28:51.834Z,5.50
2022-10-16T04:33:52.546Z,4.30
2022-10-16T04:38:53.272Z,5.90
2022-10-16T04:43:53.977Z,4.50
2022-10-16T04:48:54.717Z,4.90
2022-10-16T04:53:55.473Z,4.50
2022-10-16T04:58:56.179Z,5.30
2022-10-16T05:03:56.877Z,5.10
2022-10-16T05:08:57.577Z,4.60
2022-10-16T05:13:58.289Z,4.30
2022-10-16T05:19:22.527Z,4.50
2022-10-16T05:24:00.485Z,5.30
2022-10-16T05:29:00.261Z,4.20
2022-10-16T05:34:00.918Z,4.80
2022-10-16T05:39:01.602Z,4.60
2022-10-16T05:44:02.269Z,4.30
2022-10-16T05:49:02.956Z,5.20
2022-10-16T05:54:03.596Z,4.80
2022-10-16T05:59:04.261Z,4.50
2022-10-16T06:04:05.051Z,5.80
2022-10-16T06:09:05.814Z,5.20
2022-10-16T06:14:06.478Z,4.30
2022-10-16T06:19:07.172Z,4.70
2022-10-16T06:24:07.942Z,4.70
2022-10-16T06:29:08.679Z,6.50
2022-10-16T06:34:09.320Z,4.80
2022-10-16T06:39:09.976Z,7.90
2022-10-16T06:44:10.684Z,5.10
2022-10-16T06:49:11.433Z,5.70
2022-10-16T06:54:12.054Z,6.10
2022-10-16T06:59:12.798Z,7.00
2022-10-16T07:04:13.589Z,5.30
2022-10-16T07:09:14.218Z,6.00
2022-10-16T07:14:14.915Z,5.70
2022-10-16T07:19:15.730Z,6.50
2022-10-16T07:24:16.325Z,5.70
2022-10-16T07:29:17.194Z,4.70
2022-10-16T07:34:17.996Z,7.40
2022-10-16T07:39:18.786Z,4.90
2022-10-16T07:44:19.554Z,5.90
2022-10-16T07:49:20.270Z,5.30
2022-10-16T07:54:21.182Z,3.40
2022-10-16T07:59:22.084Z,4.60
2022-10-16T08:04:22.886Z,5.50
2022-10-16T08:09:23.701Z,4.80
2022-10-16T08:14:24.587Z,6.30
2022-10-16T08:19:25.456Z,4.20
2022-10-16T08:24:26.261Z,4.70
2022-10-16T08:29:27.192Z,4.40
2022-10-16T08:34:27.973Z,4.90
2022-10-16T08:39:28.742Z,4.70
2022-10-16T08:44:29.435Z,5.30
2022-10-16T08:49:30.113Z,4.40
2022-10-16T08:54:30.906Z,5.30
2022-10-16T08:59:31.661Z,5.60
2022-10-16T09:04:32.334Z,4.60
2022-10-16T09:09:39.993Z,6.20
2022-10-16T09:14:33.618Z,4.10
2022-10-16T09:19:34.267Z,5.90
2022-10-16T09:24:34.988Z,6.40
2022-10-16T09:29:35.678Z,12.00
2022-10-16T09:34:36.333Z,5.20
2022-10-16T09:39:37.036Z,6.00
2022-10-16T09:44:37.866Z,4.80
2022-10-16T09:49:38.591Z,6.20
2022-10-16T09:54:39.256Z,5.90
2022-10-16T09:59:39.930Z,6.00
2022-10-16T10:04:40.654Z,7.10
2022-10-16T10:09:41.413Z,6.40
2022-10-16T10:14:42.101Z,5.80
2022-10-16T10:19:42.796Z,4.70
2022-10-16T10:24:43.451Z,7.80
2022-10-16T10:29:44.144Z,3.30
2022-10-16T10:34:44.809Z,4.90
2022-10-16T10:39:45.509Z,5.30
2022-10-16T10:44:46.171Z,7.40
2022-10-16T10:49:48.936Z,5.10
2022-10-16T10:54:47.332Z,3.90
2022-10-16T10:59:47.972Z,5.20
2022-10-16T11:04:48.693Z,5.90
2022-10-16T11:09:49.327Z,5.50
2022-10-16T11:14:49.954Z,3.90
2022-10-16T11:19:51.769Z,4.60
2022-10-16T11:24:51.467Z,4.10
2022-10-16T11:29:52.150Z,15.40
2022-10-16T11:34:52.906Z,9.90
2022-10-16T11:39:53.577Z,11.80
2022-10-16T11:44:54.236Z,7.00
2022-10-16T11:49:54.923Z,6.10
2022-10-16T11:54:55.589Z,5.70
2022-10-16T11:59:56.264Z,9.00
2022-10-16T12:04:56.899Z,8.80
2022-10-16T12:09:57.633Z,7.60
2022-10-16T12:15:15.877Z,5.30
2022-10-16T12:19:59.948Z,6.10
2022-10-16T12:24:59.666Z,4.50
2022-10-16T12:30:00.346Z,5.40
2022-10-16T12:35:01.024Z,4.20
2022-10-16T12:40:01.717Z,4.90
2022-10-16T12:45:02.403Z,4.70
2022-10-16T12:50:07.284Z,4.10
2022-10-16T12:55:04.736Z,3.80
2022-10-16T13:00:04.387Z,5.70
2022-10-16T13:05:05.100Z,4.10
2022-10-16T13:10:05.878Z,3.80
2022-10-16T13:15:06.720Z,2.70
2022-10-16T13:20:07.449Z,3.20
2022-10-16T13:25:10.234Z,4.10
2022-10-16T13:30:09.863Z,3.00
2022-10-16T13:35:09.542Z,5.20
2022-10-16T13:40:10.207Z,3.40
2022-10-16T13:45:10.846Z,5.40
2022-10-16T13:50:11.523Z,4.30
2022-10-16T13:55:12.176Z,3.40
2022-10-16T14:00:12.886Z,5.00
2022-10-16T14:05:13.564Z,3.80
2022-10-16T14:10:14.224Z,4.60
2022-10-16T14:15:14.910Z,3.50
2022-10-16T14:20:15.617Z,2.90
2022-10-16T14:25:16.272Z,3.00
2022-10-16T14:30:16.928Z,3.50
2022-10-16T14:35:17.603Z,3.10
2022-10-16T14:40:18.280Z,2.50
2022-10-16T14:45:18.940Z,3.30
2022-10-16T14:50:19.639Z,4.10
2022-10-16T14:55:20.377Z,5.60
2022-10-16T15:00:21.015Z,4.30
2022-10-16T15:05:21.707Z,5.80
2022-10-16T15:10:29.342Z,5.40
2022-10-16T15:15:22.990Z,4.90
2022-10-16T15:20:23.669Z,6.80
2022-10-16T15:25:24.345Z,4.50
2022-10-16T15:30:25.008Z,5.70
2022-10-16T15:35:25.675Z,6.20
2022-10-16T15:40:26.349Z,7.90
2022-10-16T15:45:27.032Z,4.10
2022-10-16T15:50:27.690Z,6.60
2022-10-16T15:55:28.340Z,4.70
2022-10-16T16:00:29.266Z,5.70
2022-10-16T16:05:30.080Z,4.20
2022-10-16T16:10:30.775Z,5.50
2022-10-16T16:15:31.591Z,5.70
2022-10-16T16:20:32.499Z,7.00
2022-10-16T16:25:33.219Z,5.60
2022-10-16T16:30:34.047Z,5.80
2022-10-16T16:35:34.832Z,7.10
2022-10-16T16:40:35.487Z,6.60
2022-10-16T16:45:36.271Z,6.00
2022-10-16T16:50:37.030Z,5.40
2022-10-16T16:55:37.751Z,6.90
2022-10-16T17:00:44.125Z,6.70
2022-10-16T17:05:40.160Z,5.90
2022-10-16T17:10:39.902Z,7.50
2022-10-16T17:15:40.612Z,7.90
2022-10-16T17:20:41.390Z,7.40
2022-10-16T17:25:42.121Z,7.50
2022-10-16T17:30:43.075Z,7.40
2022-10-16T17:35:43.971Z,8.20
2022-10-16T17:40:44.707Z,8.40
2022-10-16T17:45:45.500Z,8.90
2022-10-16T17:50:46.370Z,9.00
2022-10-16T17:55:47.066Z,9.10
2022-10-16T18:11:19.334Z,13.50
2022-10-16T18:16:20.098Z,14.40
2022-10-16T18:21:20.893Z,14.10
2022-10-16T18:26:28.974Z,13.60
2022-10-16T18:31:22.354Z,13.70
2022-10-16T18:36:23.274Z,12.70
2022-10-16T18:41:23.946Z,14.00
2022-10-16T18:46:24.808Z,15.20
2022-10-16T18:51:25.525Z,14.70
2022-10-16T18:56:26.533Z,19.80
2022-10-16T19:01:26.990Z,18.10
2022-10-16T19:06:27.727Z,22.70
2022-10-16T19:11:28.577Z,22.30
2022-10-16T19:16:29.444Z,21.00
2022-10-16T19:21:30.537Z,20.30
2022-10-16T19:26:30.752Z,19.50
2022-10-16T19:31:31.569Z,22.10
2022-10-16T19:36:32.370Z,21.40
2022-10-16T19:41:33.140Z,19.40
2022-10-16T19:46:33.881Z,24.40
2022-10-16T19:51:34.609Z,25.00
2022-10-16T19:56:35.317Z,23.90
2022-10-16T20:01:36.208Z,25.70
2022-10-16T20:06:37.192Z,23.20
2022-10-16T20:11:37.940Z,24.10
2022-10-16T20:16:38.639Z,24.60
2022-10-16T20:21:39.372Z,22.50
2022-10-16T20:26:40.071Z,25.40
2022-10-16T20:31:40.773Z,24.70
2022-10-16T20:36:41.497Z,24.50
2022-10-16T20:41:42.258Z,26.90
2022-10-16T20:46:43.035Z,25.00
2022-10-16T20:51:43.706Z,26.80
2022-10-16T20:56:44.439Z,28.20
2022-10-16T21:01:45.198Z,25.70
2022-10-16T21:06:45.923Z,24.40
2022-10-16T21:11:46.752Z,26.40
2022-10-16T21:16:47.458Z,23.50
2022-10-16T21:21:48.181Z,23.90
2022-10-16T21:26:48.893Z,22.80
2022-10-16T21:31:49.721Z,19.20
2022-10-16T21:36:50.513Z,19.60
2022-10-16T21:41:51.188Z,36.80
2022-10-16T21:46:51.946Z,18.30
2022-10-16T21:51:52.749Z,18.90
2022-10-16T21:56:53.514Z,17.90
2022-10-16T22:01:54.258Z,16.80
2022-10-16T22:06:55.012Z,16.20
2022-10-16T22:11:55.715Z,18.20
2022-10-16T22:16:56.479Z,17.10
2022-10-16T22:21:57.233Z,18.60
2022-10-16T22:26:57.920Z,17.90
2022-10-16T22:31:58.675Z,17.10
2022-10-16T22:36:59.378Z,15.50
2022-10-16T22:42:00.172Z,17.90
2022-10-16T22:47:00.875Z,17.80
2022-10-16T22:52:01.589Z,19.00
2022-10-16T22:57:02.292Z,15.80
2022-10-16T23:02:03.064Z,14.60
2022-10-16T23:07:03.759Z,15.00
2022-10-16T23:12:04.467Z,15.20
2022-10-16T23:17:05.196Z,15.40
2022-10-16T23:22:05.901Z,16.60
2022-10-16T23:27:06.615Z,17.30
2022-10-16T23:32:07.358Z,13.70
2022-10-16T23:37:08.181Z,14.10
2022-10-16T23:42:09.069Z,11.90
2022-10-16T23:47:09.772Z,11.60
2022-10-16T23:52:10.478Z,12.40
2022-10-16T23:57:11.198Z,14.10
